Time;durP1;ratioP1;P1;durP2;ratioP2;P2;SDS_P1;SDS_P2;PMS_P1;PMS_P2;Temp;Humidity;BMP_temperature;BMP_pressure;BME280_temperature;BME280_humidity;BME280_pressure;Samples;Min_cycle;Max_cycle;Signal;HPM_P1;HPM_P2
2022/08/23 00:01:38;;;;;;;3.78;2.92;;;21.30;99.90;;;;;;6303268;22;20086;-87
2022/08/23 00:04:13;;;;;;;3.50;2.77;;;21.40;99.90;;;;;;6303164;22;20004;-90
2022/08/23 00:06:40;;;;;;;6.78;2.90;;;21.20;99.90;;;;;;6275315;22;20287;-87
2022/08/23 00:09:07;;;;;;;2.85;2.53;;;21.70;99.90;;;;;;6303075;22;19999;-87
2022/08/23 00:11:42;;;;;;;3.42;2.80;;;21.20;99.90;;;;;;6303444;22;20340;-89
2022/08/23 00:14:26;;;;;;;3.10;2.80;;;21.20;99.90;;;;;;6275734;22;20027;-89
2022/08/23 00:16:53;;;;;;;2.92;2.58;;;21.30;99.90;;;;;;6303222;22;20026;-88
2022/08/23 00:19:21;;;;;;;2.95;2.65;;;21.10;99.90;;;;;;6302852;22;20000;-87
2022/08/23 00:21:48;;;;;;;3.63;2.88;;;21.00;99.90;;;;;;6275639;22;20082;-89
2022/08/23 00:24:15;;;;;;;2.90;2.63;;;21.00;99.90;;;;;;6302969;22;19999;-89
2022/08/23 00:26:56;;;;;;;5.13;2.90;;;20.90;99.90;;;;;;6275375;22;20431;-88
2022/08/23 00:29:30;;;;;;;3.03;2.72;;;20.90;99.90;;;;;;6302995;22;19999;-91
2022/08/23 00:31:57;;;;;;;3.08;2.75;;;20.90;99.90;;;;;;6302915;22;20003;-88
2022/08/23 00:34:23;;;;;;;2.65;2.45;;;20.90;99.90;;;;;;6303048;22;20002;-91
2022/08/23 00:36:49;;;;;;;4.90;2.90;;;21.40;99.90;;;;;;6302987;22;20003;-91
2022/08/23 00:39:17;;;;;;;2.80;2.60;;;20.90;99.90;;;;;;6302485;22;20111;-90
2022/08/23 00:41:44;;;;;;;3.75;2.88;;;20.60;99.90;;;;;;6275385;22;20458;-90
2022/08/23 00:47:41;;;;;;;3.88;2.50;;;20.90;99.90;;;;;;6302706;22;20019;-89
2022/08/23 00:50:31;;;;;;;4.30;2.47;;;20.90;99.90;;;;;;6275290;22;20339;-89
2022/08/23 00:53:12;;;;;;;3.03;2.72;;;20.80;99.90;;;;;;6275492;22;20007;-87
2022/08/23 00:55:41;;;;;;;3.47;2.42;;;20.80;99.90;;;;;;6302591;22;19999;-87
2022/08/23 00:58:08;;;;;;;6.22;3.10;;;20.80;99.90;;;;;;6302837;22;20033;-87
2022/08/23 01:00:35;;;;;;;3.60;3.15;;;20.70;99.90;;;;;;6276731;22;20006;-87
2022/08/23 01:03:03;;;;;;;4.22;3.10;;;20.70;99.90;;;;;;6303975;22;19999;-87
2022/08/23 01:05:42;;;;;;;4.75;2.92;;;20.80;99.90;;;;;;6275287;22;20003;-87
2022/08/23 01:08:08;;;;;;;7.35;3.30;;;21.00;99.90;;;;;;6274974;22;20007;-90
2022/08/23 01:10:46;;;;;;;5.13;3.30;;;20.70;99.90;;;;;;6303484;22;20035;-86
2022/08/23 01:13:28;;;;;;;4.15;2.90;;;20.70;99.90;;;;;;6302521;22;20002;-88
2022/08/23 01:16:06;;;;;;;3.88;2.80;;;20.70;99.90;;;;;;6302472;22;19999;-88
2022/08/23 01:18:33;;;;;;;6.90;2.80;;;20.80;99.90;;;;;;6276043;22;20018;-90
2022/08/23 01:21:18;;;;;;;3.67;2.50;;;20.70;99.90;;;;;;6274988;22;20007;-90
2022/08/23 01:23:57;;;;;;;2.80;2.60;;;20.80;99.90;;;;;;6302701;22;19996;-90
2022/08/23 01:26:24;;;;;;;3.70;2.60;;;20.80;99.90;;;;;;6274767;22;20517;-89
2022/08/23 01:28:53;;;;;;;3.00;2.73;;;20.80;99.90;;;;;;6302450;22;19999;-90
2022/08/23 01:31:22;;;;;;;5.75;2.95;;;20.80;99.90;;;;;;6275304;22;20015;-87
2022/08/23 01:33:55;;;;;;;4.75;3.10;;;21.30;99.90;;;;;;6302613;22;19999;-88
2022/08/23 01:36:22;;;;;;;6.30;2.80;;;20.90;99.90;;;;;;6302405;22;20335;-88
2022/08/23 01:38:48;;;;;;;6.43;3.00;;;20.90;99.90;;;;;;6302421;22;20484;-87
2022/08/23 01:41:13;;;;;;;4.93;2.78;;;20.90;99.90;;;;;;6302860;22;20038;-87
2022/08/23 01:43:39;;;;;;;3.45;2.88;;;20.90;99.90;;;;;;6303237;22;19995;-88
2022/08/23 01:46:18;;;;;;;6.55;2.65;;;20.90;99.90;;;;;;6278621;22;20003;-89
2022/08/23 01:48:46;;;;;;;8.32;3.17;;;20.90;99.90;;;;;;6309262;22;20007;-87
2022/08/23 01:51:15;;;;;;;2.85;2.63;;;20.90;99.90;;;;;;6298487;22;20019;-87
2022/08/23 01:53:41;;;;;;;4.75;2.90;;;20.90;99.90;;;;;;6298077;22;20007;-86
2022/08/23 01:56:08;;;;;;;4.80;2.90;;;20.90;99.90;;;;;;6298275;22;20436;-87
2022/08/23 01:58:35;;;;;;;3.33;2.70;;;21.10;99.90;;;;;;6307606;22;20074;-88
2022/08/23 02:01:03;;;;;;;4.47;3.20;;;20.90;99.90;;;;;;6304117;22;20373;-88
2022/08/23 02:03:29;;;;;;;;;;;22.70;99.90;;;;;;6277582;22;20011;-90
2022/08/23 02:05:56;;;;;;;4.10;3.30;;;20.90;99.90;;;;;;6276550;22;20231;-88
2022/08/23 02:09:04;;;;;;;3.50;3.20;;;20.90;99.90;;;;;;6276628;22;20007;-87
2022/08/23 02:11:14;;;;;;;3.95;3.00;;;20.90;99.90;;;;;;6287728;22;20012;-89
2022/08/23 02:13:41;;;;;;;4.25;2.95;;;21.20;99.90;;;;;;6304222;22;19999;-89
2022/08/23 02:16:07;;;;;;;8.33;3.30;;;21.00;99.90;;;;;;6278082;22;20428;-88
2022/08/23 02:18:33;;;;;;;4.47;3.13;;;20.90;99.90;;;;;;6304258;22;20005;-88
2022/08/23 02:20:59;;;;;;;4.20;2.97;;;21.30;99.90;;;;;;6304163;22;20340;-88
2022/08/23 02:23:26;;;;;;;6.00;3.30;;;20.90;99.90;;;;;;6276680;22;20364;-87
2022/08/23 02:25:51;;;;;;;4.28;2.97;;;20.90;99.90;;;;;;6303981;22;20457;-87
2022/08/23 02:28:18;;;;;;;4.13;3.15;;;20.90;99.90;;;;;;6303962;22;19996;-89
2022/08/23 02:30:45;;;;;;;5.70;3.63;;;20.90;99.90;;;;;;6276843;22;20022;-87
2022/08/23 02:33:12;;;;;;;4.75;3.33;;;20.80;99.90;;;;;;6276252;22;20057;-87
2022/08/23 02:35:39;;;;;;;5.85;3.10;;;20.80;99.90;;;;;;6304762;22;19999;-88
2022/08/23 02:38:07;;;;;;;4.95;2.88;;;20.80;99.90;;;;;;6304049;22;20069;-87
2022/08/23 02:40:34;;;;;;;4.20;3.08;;;20.80;99.90;;;;;;6304062;22;19999;-87
2022/08/23 02:43:00;;;;;;;4.43;2.70;;;20.80;99.90;;;;;;6303649;22;20006;-89
2022/08/23 02:45:27;;;;;;;5.28;3.28;;;20.80;99.90;;;;;;6276296;22;20007;-90
2022/08/23 02:47:54;;;;;;;4.75;3.13;;;20.80;99.90;;;;;;6303616;22;20006;-87
2022/08/23 02:50:20;;;;;;;3.28;2.97;;;20.80;99.90;;;;;;6303615;22;20011;-88
2022/08/23 02:52:46;;;;;;;3.72;3.03;;;20.80;99.90;;;;;;6304056;22;19995;-90
2022/08/23 02:55:12;;;;;;;5.97;3.72;;;20.70;99.90;;;;;;6303127;22;20060;-87
2022/08/23 02:57:38;;;;;;;4.90;3.00;;;20.70;99.90;;;;;;6277318;22;20052;-89
2022/08/23 03:00:07;;;;;;;4.38;3.30;;;20.80;99.90;;;;;;6303666;22;20010;-88
2022/08/23 03:02:33;;;;;;;4.47;3.42;;;20.70;99.90;;;;;;6303496;22;20003;-91
2022/08/23 03:04:59;;;;;;;3.97;3.58;;;20.70;99.90;;;;;;6303412;22;20003;-87
2022/08/23 03:07:25;;;;;;;4.72;3.30;;;20.80;99.90;;;;;;6303736;22;20003;-90
2022/08/23 03:09:50;;;;;;;4.53;3.45;;;20.70;99.90;;;;;;6303649;22;20431;-87
2022/08/23 03:12:16;;;;;;;3.83;3.47;;;20.70;99.90;;;;;;6275919;22;20011;-88
2022/08/23 03:14:42;;;;;;;3.78;3.45;;;20.70;99.90;;;;;;6304306;22;20066;-88
2022/08/23 03:17:08;;;;;;;4.05;3.55;;;19.90;99.90;;;;;;6304324;22;19999;-88
2022/08/23 03:19:34;;;;;;;5.47;3.50;;;20.60;99.90;;;;;;6303332;22;19999;-90
2022/08/23 03:22:00;;;;;;;4.82;3.53;;;20.60;99.90;;;;;;6303593;22;20060;-88
2022/08/23 03:24:26;;;;;;;4.10;3.25;;;20.60;99.90;;;;;;6303815;22;20439;-88
2022/08/23 03:26:51;;;;;;;4.53;3.40;;;20.60;99.90;;;;;;6303619;22;20002;-90
2022/08/23 03:29:18;;;;;;;3.97;3.58;;;20.60;99.90;;;;;;6303105;22;20007;-89
2022/08/23 03:31:44;;;;;;;4.13;3.70;;;20.60;99.90;;;;;;6275905;22;20007;-88
2022/08/23 03:34:11;;;;;;;4.82;3.80;;;20.60;99.90;;;;;;6304222;22;20041;-88
2022/08/23 03:36:37;;;;;;;6.00;4.13;;;21.90;99.90;;;;;;6303414;22;20034;-88
2022/08/23 03:39:04;;;;;;;5.13;3.97;;;20.50;99.90;;;;;;6276485;22;20130;-88
2022/08/23 03:41:30;;;;;;;4.57;4.03;;;20.90;99.90;;;;;;6275879;22;20003;-87
2022/08/23 03:43:56;;;;;;;7.35;4.13;;;20.50;99.90;;;;;;6303093;22;20420;-89
2022/08/23 03:46:22;;;;;;;6.65;3.95;;;21.70;99.90;;;;;;6275140;22;20000;-88
2022/08/23 03:48:53;;;;;;;5.32;4.10;;;20.50;99.90;;;;;;6302117;22;20011;-89
2022/08/23 03:51:20;;;;;;;7.97;4.10;;;20.60;99.90;;;;;;6302846;22;20062;-88
2022/08/23 03:53:48;;;;;;;5.85;4.20;;;20.50;99.90;;;;;;6275722;22;20007;-90
2022/08/23 03:56:33;;;;;;;5.72;4.00;;;20.50;99.90;;;;;;6276768;22;20332;-89
2022/08/23 03:59:02;;;;;;;8.48;4.32;;;20.50;99.90;;;;;;6275935;22;20007;-90
2022/08/23 04:01:28;;;;;;;5.53;4.00;;;20.50;99.90;;;;;;6302695;22;19996;-88
2022/08/23 04:03:54;;;;;;;8.15;3.95;;;20.50;99.90;;;;;;6275706;22;20010;-88
2022/08/23 04:06:19;;;;;;;4.22;3.70;;;21.20;99.90;;;;;;6302885;22;20419;-89
2022/08/23 04:08:46;;;;;;;7.07;3.50;;;20.60;99.90;;;;;;6276442;22;20015;-88
2022/08/23 04:11:13;;;;;;;3.95;3.58;;;20.60;99.90;;;;;;6303900;22;20015;-89
2022/08/23 04:13:39;;;;;;;6.10;3.72;;;20.60;99.90;;;;;;6275599;22;20003;-90
2022/08/23 04:16:05;;;;;;;5.20;3.90;;;20.60;99.90;;;;;;6275410;22;20007;-91
2022/08/23 04:18:35;;;;;;;5.03;4.00;;;20.60;99.90;;;;;;6275214;22;20411;-88
2022/08/23 04:21:06;;;;;;;4.40;4.00;;;20.50;99.90;;;;;;6301732;22;19999;-91
2022/08/23 04:23:32;;;;;;;4.40;3.47;;;20.60;99.90;;;;;;6302168;22;19995;-87
2022/08/23 04:25:58;;;;;;;6.35;4.00;;;20.60;99.90;;;;;;6301988;22;20006;-92
2022/08/23 04:28:23;;;;;;;4.32;3.38;;;21.20;99.90;;;;;;6302259;22;20367;-90
2022/08/23 04:30:50;;;;;;;4.57;3.50;;;20.60;99.90;;;;;;6302530;22;20017;-91
2022/08/23 04:33:17;;;;;;;4.85;3.40;;;20.60;99.90;;;;;;6275659;22;19999;-90
2022/08/23 04:35:43;;;;;;;8.13;3.30;;;20.60;99.90;;;;;;6303279;22;20082;-86
2022/08/23 04:38:10;;;;;;;9.77;3.78;;;20.60;99.90;;;;;;6302197;22;19995;-91
2022/08/23 04:43:20;;;;;;;5.45;3.80;;;21.40;99.90;;;;;;6302078;22;20052;-87
2022/08/23 04:45:50;;;;;;;4.57;3.90;;;20.60;99.90;;;;;;6275755;22;20010;-89
2022/08/23 04:48:16;;;;;;;6.65;3.72;;;20.60;99.90;;;;;;6303120;22;19995;-89
2022/08/23 04:50:41;;;;;;;4.97;3.92;;;20.60;99.90;;;;;;6302057;22;20022;-89
2022/08/23 04:53:10;;;;;;;4.93;3.70;;;20.60;99.90;;;;;;6274722;22;20035;-89
2022/08/23 04:55:36;;;;;;;5.55;3.88;;;20.60;99.90;;;;;;6302449;22;20087;-90
2022/08/23 04:58:03;;;;;;;6.35;3.50;;;21.00;99.90;;;;;;6303686;22;20021;-89
2022/08/23 05:00:29;;;;;;;4.95;4.03;;;21.00;99.90;;;;;;6275704;22;20059;-91
2022/08/23 05:02:55;;;;;;;6.72;3.92;;;20.60;99.90;;;;;;6275932;22;20340;-88
2022/08/23 05:05:24;;;;;;;6.15;3.90;;;20.60;99.90;;;;;;6302698;22;20364;-89
2022/08/23 05:07:50;;;;;;;7.00;4.15;;;20.60;99.90;;;;;;6302348;22;20002;-89
2022/08/23 05:10:18;;;;;;;8.10;4.03;;;20.60;99.90;;;;;;6303118;22;20023;-91
2022/08/23 05:12:44;;;;;;;6.05;4.00;;;21.10;99.90;;;;;;6303337;22;19999;-91
2022/08/23 05:15:11;;;;;;;7.38;3.92;;;20.60;99.90;;;;;;6302005;22;20455;-90
2022/08/23 05:17:38;;;;;;;7.78;3.92;;;20.70;99.90;;;;;;6298742;22;20007;-90
2022/08/23 05:20:06;;;;;;;6.53;4.13;;;21.40;99.90;;;;;;6274083;22;20003;-89
2022/08/23 05:22:36;;;;;;;7.45;3.80;;;20.60;99.90;;;;;;6303164;22;20035;-90
2022/08/23 05:25:02;;;;;;;5.97;3.95;;;20.70;99.90;;;;;;6303817;22;20006;-90
2022/08/23 05:27:27;;;;;;;5.53;3.88;;;20.80;99.90;;;;;;6276308;22;20007;-89
2022/08/23 05:29:56;;;;;;;6.45;4.00;;;21.30;99.90;;;;;;6303729;22;20010;-88
2022/08/23 05:32:22;;;;;;;6.18;4.30;;;22.20;99.90;;;;;;6276154;22;20013;-89
2022/08/23 05:34:48;;;;;;;6.50;3.72;;;20.60;99.90;;;;;;6277284;22;20023;-89
2022/08/23 05:37:15;;;;;;;6.03;4.20;;;20.60;99.90;;;;;;6275987;22;20035;-89
2022/08/23 05:39:41;;;;;;;5.32;3.95;;;21.00;99.90;;;;;;6275546;22;20011;-89
2022/08/23 05:42:10;;;;;;;7.05;3.78;;;20.20;99.90;;;;;;6276529;22;19999;-89
2022/08/23 05:44:36;;;;;;;7.07;3.90;;;20.60;99.90;;;;;;6303616;22;20343;-87
2022/08/23 05:47:04;;;;;;;4.75;4.00;;;20.60;99.90;;;;;;6303928;22;20070;-87
2022/08/23 05:49:30;;;;;;;5.57;4.22;;;21.40;99.90;;;;;;6276422;22;20022;-89
2022/08/23 05:51:55;;;;;;;7.88;3.78;;;20.60;99.90;;;;;;6302991;22;20007;-89
2022/08/23 05:54:21;;;;;;;7.65;3.72;;;21.00;99.90;;;;;;6303782;22;19999;-87
2022/08/23 05:56:47;;;;;;;5.28;3.63;;;20.70;99.90;;;;;;6305469;22;20034;-87
2022/08/23 05:59:15;;;;;;;6.78;4.07;;;20.70;99.90;;;;;;6303922;22;20438;-89
2022/08/23 06:01:41;;;;;;;9.13;3.47;;;20.70;99.90;;;;;;6303304;22;20074;-87
2022/08/23 06:04:11;;;;;;;5.38;3.60;;;20.70;99.90;;;;;;6275975;22;20007;-90
2022/08/23 06:06:49;;;;;;;4.32;3.13;;;20.70;99.90;;;;;;6304820;22;20436;-92
2022/08/23 06:09:18;;;;;;;;;;;21.10;99.90;;;;;;6277911;22;20007;-91
2022/08/23 06:11:50;;;;;;;7.35;3.50;;;21.20;99.90;;;;;;6276577;22;19915;-90
2022/08/23 06:14:21;;;;;;;5.93;3.45;;;20.70;99.90;;;;;;6279010;22;20003;-90
2022/08/23 06:16:51;;;;;;;4.72;3.38;;;21.30;99.90;;;;;;6304938;22;20041;-91
2022/08/23 06:19:19;;;;;;;5.35;3.40;;;20.80;99.90;;;;;;6278221;22;20004;-89
2022/08/23 06:21:45;;;;;;;5.40;3.35;;;20.80;99.90;;;;;;6303808;22;20023;-89
2022/08/23 06:24:13;;;;;;;6.22;3.30;;;20.80;99.90;;;;;;6304689;22;20347;-90
2022/08/23 06:26:41;;;;;;;;;;;20.80;99.90;;;;;;6277795;22;20470;-90
2022/08/23 06:29:08;;;;;;;;;;;20.80;99.90;;;;;;6303199;22;20298;-89
2022/08/23 06:31:47;;;;;;;4.50;3.20;;;20.80;99.90;;;;;;6277288;22;20240;-89
2022/08/23 06:34:23;;;;;;;4.85;3.30;;;21.70;99.90;;;;;;6276754;22;20007;-90
2022/08/23 06:36:55;;;;;;;5.13;3.60;;;21.20;99.90;;;;;;6278038;22;20051;-91
2022/08/23 06:39:23;;;;;;;7.90;3.20;;;20.80;99.90;;;;;;6278943;22;20003;-89
2022/08/23 06:41:49;;;;;;;4.95;3.33;;;20.80;99.90;;;;;;6278279;22;20035;-90
2022/08/23 06:44:17;;;;;;;5.78;3.35;;;20.80;99.90;;;;;;6277493;22;20048;-91
2022/08/23 06:46:46;;;;;;;5.68;3.38;;;20.80;99.90;;;;;;6272560;22;20247;-89
2022/08/23 06:49:12;;;;;;;4.30;3.28;;;21.60;99.90;;;;;;6275370;22;20015;-91
2022/08/23 06:51:50;;;;;;;5.30;3.22;;;21.00;99.90;;;;;;6303936;22;20436;-91
2022/08/23 06:54:19;;;;;;;4.97;3.03;;;20.90;99.90;;;;;;6277268;22;20003;-88
2022/08/23 06:56:47;;;;;;;4.60;2.88;;;21.10;99.90;;;;;;6302790;22;19999;-88
2022/08/23 06:59:13;;;;;;;4.30;2.73;;;21.00;99.90;;;;;;6276374;22;20078;-89
2022/08/23 07:01:44;;;;;;;4.22;2.88;;;21.50;99.90;;;;;;6303422;22;19995;-89
2022/08/23 07:04:12;;;;;;;4.07;2.80;;;21.10;99.90;;;;;;6276115;22;20389;-90
2022/08/23 07:06:39;;;;;;;5.15;2.83;;;21.20;99.90;;;;;;6302759;22;20000;-91
2022/08/23 07:09:06;;;;;;;4.78;2.60;;;21.10;99.90;;;;;;6303046;22;20011;-89
2022/08/23 07:11:31;;;;;;;3.88;2.60;;;21.10;99.90;;;;;;6275005;22;20015;-88
2022/08/23 07:14:06;;;;;;;2.50;2.20;;;21.10;99.90;;;;;;6276995;22;20025;-90
2022/08/23 07:16:35;;;;;;;2.85;2.40;;;21.20;99.90;;;;;;6297256;22;20022;-88
2022/08/23 07:19:01;;;;;;;6.38;2.42;;;21.20;99.90;;;;;;6275293;22;20003;-90
2022/08/23 07:21:27;;;;;;;3.05;2.33;;;21.30;99.90;;;;;;6276165;22;20011;-90
2022/08/23 07:23:54;;;;;;;2.97;2.30;;;21.30;99.90;;;;;;6304781;22;20439;-90
2022/08/23 07:26:21;;;;;;;2.83;2.30;;;21.10;99.90;;;;;;6304065;22;20335;-90
2022/08/23 07:28:47;;;;;;;3.88;2.15;;;21.40;99.90;;;;;;6302713;22;20100;-89
2022/08/23 07:31:21;;;;;;;5.13;1.90;;;21.40;99.90;;;;;;6275931;22;20390;-90
2022/08/23 07:33:47;;;;;;;2.55;2.10;;;21.50;99.90;;;;;;6303804;22;20010;-88
2022/08/23 07:36:15;;;;;;;3.67;1.73;;;21.50;99.90;;;;;;6302838;22;20001;-89
2022/08/23 07:38:45;;;;;;;3.33;2.10;;;21.50;99.90;;;;;;6303347;22;20082;-89
2022/08/23 07:41:11;;;;;;;4.90;2.20;;;21.60;99.90;;;;;;6302755;22;20026;-87
2022/08/23 07:43:38;;;;;;;5.25;1.90;;;21.60;99.90;;;;;;6275897;22;20026;-93
2022/08/23 07:46:05;;;;;;;5.88;2.03;;;23.00;99.90;;;;;;6302723;22;19999;-90
2022/08/23 07:48:32;;;;;;;2.80;1.80;;;21.70;99.90;;;;;;6302214;22;19995;-89
2022/08/23 07:51:02;;;;;;;1.70;1.50;;;21.70;99.90;;;;;;6275582;22;20038;-90
2022/08/23 07:53:29;;;;;;;3.60;1.65;;;21.60;99.90;;;;;;6302634;22;19999;-89
2022/08/23 07:55:55;;;;;;;4.75;1.50;;;21.90;99.90;;;;;;6274977;22;20015;-89
2022/08/23 07:58:23;;;;;;;1.75;1.30;;;21.60;99.90;;;;;;6303215;22;20390;-88
2022/08/23 08:00:50;;;;;;;;;;;21.60;99.90;;;;;;6276537;22;20013;-90
2022/08/23 08:03:17;;;;;;;3.53;1.65;;;21.70;99.90;;;;;;6302821;22;19899;-90
2022/08/23 08:05:42;;;;;;;1.63;1.40;;;21.80;99.90;;;;;;6302453;22;20027;-90
2022/08/23 08:08:10;;;;;;;3.08;1.40;;;21.80;99.90;;;;;;6302454;22;20003;-88
2022/08/23 08:10:40;;;;;;;2.95;1.30;;;21.80;99.90;;;;;;6302151;22;20018;-92
2022/08/23 08:13:07;;;;;;;2.70;1.35;;;21.70;99.90;;;;;;6275545;22;20031;-88
2022/08/23 08:15:33;;;;;;;3.22;1.30;;;21.70;99.90;;;;;;6301907;22;20045;-90
2022/08/23 08:17:59;;;;;;;1.30;1.20;;;21.70;99.90;;;;;;6302467;22;20006;-89
2022/08/23 08:20:27;;;;;;;2.25;1.20;;;21.70;99.90;;;;;;6274959;22;20089;-89
2022/08/23 08:22:54;;;;;;;2.72;1.33;;;21.50;99.90;;;;;;6275775;22;20003;-89
2022/08/23 08:25:20;;;;;;;3.83;1.60;;;22.40;99.90;;;;;;6303301;22;19999;-90
2022/08/23 08:27:47;;;;;;;5.80;1.60;;;22.10;99.90;;;;;;6275434;22;20007;-90
2022/08/23 08:30:13;;;;;;;2.30;2.00;;;21.80;99.90;;;;;;6274852;22;20094;-91
2022/08/23 08:32:39;;;;;;;2.47;1.90;;;21.80;99.90;;;;;;6302297;22;20007;-89
2022/08/23 08:35:05;;;;;;;3.10;1.80;;;24.20;99.90;;;;;;6274590;22;20004;-89
2022/08/23 08:37:31;;;;;;;2.05;1.95;;;21.90;99.90;;;;;;6275268;22;20003;-90
2022/08/23 08:39:58;;;;;;;4.20;2.10;;;21.80;99.90;;;;;;6302007;22;20006;-93
2022/08/23 08:42:45;;;;;;;2.25;2.10;;;21.80;99.90;;;;;;6275666;22;20466;-89
2022/08/23 08:45:17;;;;;;;2.40;2.20;;;22.10;99.90;;;;;;6273688;22;20335;-88
2022/08/23 08:47:51;;;;;;;7.28;2.30;;;22.10;99.90;;;;;;6302021;22;20000;-88
2022/08/23 08:50:26;;;;;;;4.57;2.33;;;22.20;99.90;;;;;;6274093;22;20619;-89
2022/08/23 08:53:13;;;;;;;2.22;1.80;;;22.30;99.90;;;;;;6302540;22;20002;-92
2022/08/23 08:55:59;;;;;;;2.05;1.70;;;22.40;99.90;;;;;;6302637;22;20006;-90
2022/08/23 08:58:41;;;;;;;5.97;2.47;;;22.80;99.90;;;;;;6275567;22;20086;-89
2022/08/23 09:01:07;;;;;;;5.18;2.20;;;22.50;99.90;;;;;;6275057;22;20009;-87
2022/08/23 09:03:34;;;;;;;4.78;2.30;;;22.60;99.90;;;;;;6302470;22;20082;-92
2022/08/23 09:06:05;;;;;;;4.20;2.13;;;22.90;99.90;;;;;;6275464;22;20081;-87
2022/08/23 09:08:34;;;;;;;2.95;2.20;;;22.80;99.90;;;;;;6303309;22;19999;-94
2022/08/23 09:11:30;;;;;;;4.05;2.03;;;22.60;99.90;;;;;;6302333;22;20007;-90
2022/08/23 09:14:11;;;;;;;4.03;1.90;;;22.60;99.90;;;;;;6301004;22;19999;-87
2022/08/23 09:17:01;;;;;;;2.25;1.63;;;22.70;99.90;;;;;;6302607;22;20014;-92
2022/08/23 09:19:36;;;;;;;2.13;1.50;;;22.70;99.90;;;;;;6275102;22;20178;-91
2022/08/23 09:22:16;;;;;;;5.47;1.30;;;22.90;99.90;;;;;;6302287;22;20534;-92
2022/08/23 09:24:42;;;;;;;4.00;1.40;;;22.80;99.90;;;;;;6302508;22;20340;-88
2022/08/23 09:27:09;;;;;;;3.10;1.42;;;22.50;99.90;;;;;;6275462;22;20003;-88
2022/08/23 09:29:37;;;;;;;2.58;1.40;;;22.40;99.90;;;;;;6302120;22;19999;-89
2022/08/23 09:32:24;;;;;;;1.67;1.55;;;22.30;99.90;;;;;;6273982;22;20010;-89
2022/08/23 09:34:50;;;;;;;2.75;1.70;;;22.30;99.90;;;;;;6302775;22;19999;-88
2022/08/23 09:37:18;;;;;;;1.60;1.50;;;22.40;99.90;;;;;;6300928;22;20014;-88
2022/08/23 09:39:48;;;;;;;3.28;1.40;;;22.90;99.90;;;;;;6301715;22;20062;-89
2022/08/23 09:42:35;;;;;;;2.75;1.67;;;22.50;99.90;;;;;;6274550;22;20060;-89
2022/08/23 09:45:04;;;;;;;2.00;1.40;;;22.50;99.90;;;;;;6275127;22;19999;-90
2022/08/23 09:47:34;;;;;;;2.63;1.65;;;22.40;99.90;;;;;;6273098;22;20234;-89
2022/08/23 09:50:09;;;;;;;2.58;1.55;;;24.60;99.90;;;;;;6301657;22;20060;-89
2022/08/23 09:52:37;;;;;;;7.63;1.70;;;22.50;99.90;;;;;;6300770;22;20026;-87
2022/08/23 09:55:09;;;;;;;2.63;1.27;;;22.70;99.90;;;;;;6301172;22;20062;-88
2022/08/23 09:57:36;;;;;;;3.08;1.50;;;22.50;99.90;;;;;;6281207;22;20003;-87
2022/08/23 10:00:26;;;;;;;3.30;1.30;;;22.50;99.90;;;;;;6330914;22;19983;-89
2022/08/23 10:02:56;;;;;;;2.40;1.40;;;22.60;99.90;;;;;;6303448;22;19987;-89
2022/08/23 10:05:38;;;;;;;2.63;1.40;;;22.80;99.90;;;;;;6324883;22;20007;-89
2022/08/23 10:08:04;;;;;;;2.55;1.40;;;22.80;99.90;;;;;;6281047;22;20007;-87
2022/08/23 10:10:42;;;;;;;1.77;1.25;;;23.00;99.90;;;;;;6304487;22;20431;-90
2022/08/23 10:13:08;;;;;;;1.63;1.00;;;23.20;99.90;;;;;;6304564;22;20032;-90
2022/08/23 10:15:57;;;;;;;2.47;1.10;;;23.30;99.90;;;;;;6304275;22;20009;-89
2022/08/23 10:19:01;;;;;;;1.92;1.23;;;23.30;99.90;;;;;;6277242;22;20008;-90
2022/08/23 10:21:41;;;;;;;1.45;1.13;;;23.70;99.90;;;;;;6301730;22;20436;-90
2022/08/23 10:24:37;;;;;;;2.60;1.40;;;23.20;99.90;;;;;;6276863;22;20007;-87
2022/08/23 10:29:35;;;;;;;3.15;1.40;;;23.00;99.90;;;;;;6304723;22;20000;-89
2022/08/23 10:30:03;;;;;;;3.17;1.30;;;22.80;99.90;;;;;;6305147;22;20011;-90
2022/08/23 10:32:37;;;;;;;1.65;1.35;;;22.90;99.90;;;;;;6302481;22;19999;-88
2022/08/23 10:35:25;;;;;;;4.40;1.30;;;22.70;99.90;;;;;;6275396;22;20374;-89
2022/08/23 10:38:18;;;;;;;3.83;1.50;;;22.50;99.90;;;;;;6304504;22;19999;-92
2022/08/23 10:41:14;;;;;;;3.05;1.23;;;22.50;99.90;;;;;;6276963;22;20003;-88
2022/08/23 10:44:17;;;;;;;3.50;1.23;;;22.50;99.90;;;;;;6304444;22;20076;-88
2022/08/23 10:47:10;;;;;;;2.67;1.05;;;22.40;99.90;;;;;;6304176;22;19999;-87
2022/08/23 10:49:38;;;;;;;0.90;0.90;;;22.40;99.90;;;;;;6303967;22;20010;-88
2022/08/23 10:52:08;;;;;;;0.82;0.82;;;22.40;99.90;;;;;;6277489;22;20085;-89
2022/08/23 10:54:58;;;;;;;1.60;1.00;;;22.40;99.90;;;;;;6302691;22;20041;-89
2022/08/23 10:57:31;;;;;;;2.47;0.98;;;22.50;99.90;;;;;;6304879;22;20458;-88
2022/08/23 10:59:58;;;;;;;1.23;0.90;;;23.20;99.90;;;;;;6304696;22;20003;-90
2022/08/23 11:03:04;;;;;;;1.52;1.08;;;22.90;99.90;;;;;;6278776;22;20082;-90
2022/08/23 11:05:34;;;;;;;1.00;1.00;;;22.50;99.90;;;;;;6247032;22;20074;-88
2022/08/23 11:08:05;;;;;;;4.55;0.80;;;22.60;99.90;;;;;;6303093;22;19995;-87
2022/08/23 11:10:40;;;;;;;1.20;1.10;;;22.70;99.90;;;;;;6303914;22;20015;-87
2022/08/23 11:13:12;;;;;;;1.92;1.42;;;23.40;99.90;;;;;;6275647;22;20000;-89
2022/08/23 11:15:45;;;;;;;4.40;0.98;;;22.90;99.90;;;;;;6274982;22;20452;-89
2022/08/23 11:18:33;;;;;;;0.77;0.63;;;22.80;99.90;;;;;;6302610;22;20030;-93
2022/08/23 11:21:24;;;;;;;2.40;0.80;;;22.80;99.90;;;;;;6302671;22;20000;-90
2022/08/23 11:23:57;;;;;;;3.00;0.60;;;22.80;99.90;;;;;;6272960;22;20350;-90
2022/08/23 11:26:25;;;;;;;0.75;0.50;;;22.90;99.90;;;;;;6299873;22;20427;-86
2022/08/23 11:28:58;;;;;;;0.47;0.47;;;22.80;99.90;;;;;;6303105;22;20076;-89
2022/08/23 11:31:34;;;;;;;1.75;0.75;;;22.90;99.90;;;;;;6303656;22;20007;-91
2022/08/23 11:34:19;;;;;;;0.63;0.50;;;22.90;99.90;;;;;;6301608;22;20003;-91
2022/08/23 11:37:19;;;;;;;0.50;0.50;;;23.00;99.90;;;;;;6300878;22;20109;-91
2022/08/23 11:39:57;;;;;;;1.73;0.60;;;23.70;99.90;;;;;;6300977;22;20044;-91
2022/08/23 11:42:41;;;;;;;0.63;0.50;;;22.80;99.90;;;;;;6301986;22;20009;-90
2022/08/23 11:45:23;;;;;;;0.88;0.70;;;23.20;99.90;;;;;;6273706;22;20033;-92
2022/08/23 11:48:36;;;;;;;0.73;0.52;;;23.20;99.90;;;;;;6274682;22;20007;-92
2022/08/23 11:51:11;;;;;;;0.88;0.68;;;23.40;99.90;;;;;;6262027;22;20156;-92
2022/08/23 11:53:52;;;;;;;0.77;0.50;;;23.20;99.90;;;;;;6301316;22;20475;-90
2022/08/23 11:56:20;;;;;;;0.60;0.60;;;23.20;99.90;;;;;;6301406;22;20328;-87
2022/08/23 11:59:13;;;;;;;3.13;0.70;;;23.30;99.90;;;;;;6300489;22;19999;-88
2022/08/23 12:01:40;;;;;;;0.82;0.60;;;23.20;99.90;;;;;;6273972;22;20053;-92
2022/08/23 12:04:13;;;;;;;3.30;0.82;;;23.10;99.90;;;;;;6301374;22;20030;-91
2022/08/23 12:06:48;;;;;;;1.20;0.60;;;23.00;99.90;;;;;;6273861;22;20014;-92
2022/08/23 12:09:22;;;;;;;0.70;0.60;;;23.10;99.90;;;;;;6301688;22;20003;-91
2022/08/23 12:11:54;;;;;;;0.85;0.77;;;23.20;99.90;;;;;;6273821;22;20336;-92
2022/08/23 12:14:38;;;;;;;1.25;0.68;;;23.20;99.90;;;;;;6300015;22;20428;-89
2022/08/23 12:17:34;;;;;;;0.88;0.73;;;23.20;99.90;;;;;;6273436;22;20018;-88
2022/08/23 12:20:11;;;;;;;0.70;0.70;;;23.20;99.90;;;;;;6300577;22;20048;-90
2022/08/23 12:23:01;;;;;;;1.48;0.68;;;23.20;99.90;;;;;;6273218;22;20027;-88
2022/08/23 12:25:30;;;;;;;0.90;0.80;;;23.20;99.90;;;;;;6274128;22;20094;-90
2022/08/23 12:28:10;;;;;;;1.15;0.93;;;23.30;99.90;;;;;;6274961;22;20015;-89
2022/08/23 12:30:56;;;;;;;0.80;0.80;;;23.40;99.90;;;;;;6301396;22;20011;-87
2022/08/23 12:33:44;;;;;;;1.00;0.70;;;23.40;99.90;;;;;;6299930;22;20324;-87
2022/08/23 12:36:32;;;;;;;1.13;0.60;;;23.60;99.90;;;;;;6300510;22;19999;-89
2022/08/23 12:39:08;;;;;;;0.73;0.73;;;23.60;99.90;;;;;;6272112;22;20080;-90
2022/08/23 12:41:54;;;;;;;0.63;0.63;;;23.60;99.90;;;;;;6273691;22;20046;-90
2022/08/23 12:44:23;;;;;;;0.60;0.60;;;23.70;99.90;;;;;;6274103;22;20003;-91
2022/08/23 12:46:50;;;;;;;1.65;0.90;;;23.90;99.90;;;;;;6294733;22;19994;-89
2022/08/23 12:49:30;;;;;;;0.70;0.70;;;23.90;99.90;;;;;;6301071;22;20039;-90
2022/08/23 12:52:07;;;;;;;0.70;0.70;;;23.70;99.90;;;;;;6307827;22;20351;-89
2022/08/23 12:54:43;;;;;;;2.03;0.68;;;23.90;99.90;;;;;;6303942;22;19999;-89
2022/08/23 12:57:26;;;;;;;0.70;0.70;;;23.90;99.90;;;;;;6303066;22;19999;-89
2022/08/23 13:00:13;;;;;;;0.90;0.90;;;24.40;99.90;;;;;;6271715;22;20075;-91
2022/08/23 13:02:41;;;;;;;0.70;0.70;;;24.20;99.90;;;;;;6269870;22;20008;-88
2022/08/23 13:05:36;;;;;;;2.78;0.73;;;24.30;99.90;;;;;;6299542;22;20002;-92
2022/08/23 13:08:08;;;;;;;3.15;0.70;;;24.40;99.90;;;;;;6285960;22;20053;-90
2022/08/23 13:10:36;;;;;;;0.60;0.60;;;24.40;99.90;;;;;;6299295;22;20015;-90
2022/08/23 13:13:02;;;;;;;0.60;0.60;;;24.50;99.90;;;;;;6271981;22;20505;-88
2022/08/23 13:15:49;;;;;;;4.30;0.80;;;24.90;99.90;;;;;;6272641;22;20015;-90
2022/08/23 13:18:39;;;;;;;0.90;0.80;;;25.20;99.90;;;;;;6273043;22;20007;-90